Terminal Aerodrome Forecast
Issued by NWS Sioux Falls, SD

Home | Current Version | Previous Version | Graphics & Text | Print | Product List | Glossary On
Versions: 1 2 3 4 5 6 7 8 9 10 11 12 13 14 15 16
000
FTUS43 KFSD 221356 AAB
TAFFSD
TAF AMD
KFSD 221356Z 2214/2312 24004KT P6SM SCT012
      TEMPO 2214/2215 BKN012
     FM221600 21009KT P6SM SKC
     FM230600 21008KT P6SM BKN120=

USA.gov is the U.S. government's official web portal to all federal, state and local government web resources and services.